createdAt,value
2022-07-25T00:01:08.059Z,14.60
2022-07-25T00:06:17.635Z,14.60
2022-07-25T00:11:22.175Z,14.40
2022-07-25T00:16:28.870Z,14.20
2022-07-25T00:21:34.250Z,14.00
2022-07-25T00:26:40.518Z,14.10
2022-07-25T00:31:45.815Z,13.90
2022-07-25T00:36:51.851Z,13.80
2022-07-25T00:41:56.829Z,13.90
2022-07-25T00:47:02.017Z,14.00
2022-07-25T00:52:07.379Z,14.10
2022-07-25T00:57:13.362Z,13.70
2022-07-25T01:02:20.017Z,13.70
2022-07-25T01:07:26.887Z,13.90
2022-07-25T01:12:32.231Z,13.60
2022-07-25T01:17:37.603Z,13.40
2022-07-25T01:22:43.689Z,13.50
2022-07-25T01:27:54.793Z,13.80
2022-07-25T01:32:56.207Z,13.70
2022-07-25T01:38:02.141Z,13.60
2022-07-25T01:43:08.425Z,13.50
2022-07-25T01:48:14.406Z,13.50
2022-07-25T01:53:21.413Z,13.60
2022-07-25T01:58:28.442Z,13.40
2022-07-25T02:04:56.659Z,13.50
2022-07-25T02:10:02.585Z,13.20
2022-07-25T02:15:08.908Z,13.00
2022-07-25T02:20:13.835Z,13.20
2022-07-25T02:25:19.078Z,12.90
2022-07-25T02:30:24.860Z,12.90
2022-07-25T02:35:29.753Z,12.50
2022-07-25T02:40:35.310Z,12.70
2022-07-25T02:45:41.353Z,12.80
2022-07-25T02:50:46.822Z,12.70
2022-07-25T02:55:52.046Z,13.00
2022-07-25T03:00:58.769Z,13.10
2022-07-25T03:06:04.105Z,13.10
2022-07-25T03:11:09.728Z,13.10
2022-07-25T03:16:14.714Z,13.00
2022-07-25T03:21:21.458Z,13.10
2022-07-25T03:26:26.661Z,13.00
2022-07-25T03:31:32.199Z,13.10
2022-07-25T03:36:37.544Z,12.80
2022-07-25T03:41:44.281Z,12.90
2022-07-25T03:46:50.436Z,13.20
2022-07-25T03:51:55.937Z,13.50
2022-07-25T03:57:01.843Z,13.40
2022-07-25T04:02:07.755Z,13.30
2022-07-25T04:07:12.985Z,13.40
2022-07-25T04:12:19.278Z,13.20
2022-07-25T04:17:25.746Z,13.70
2022-07-25T04:22:32.031Z,14.20
2022-07-25T04:27:38.890Z,14.50
2022-07-25T04:32:44.197Z,14.60
2022-07-25T04:37:50.703Z,14.90
2022-07-25T04:42:55.722Z,15.00
2022-07-25T04:48:01.610Z,15.40
2022-07-25T04:53:06.876Z,15.50
2022-07-25T04:58:12.117Z,15.50
2022-07-25T05:03:17.954Z,16.10
2022-07-25T05:08:23.841Z,16.40
2022-07-25T05:13:30.049Z,16.70
2022-07-25T05:18:38.779Z,16.80
2022-07-25T05:23:44.289Z,17.20
2022-07-25T05:28:49.435Z,17.40
2022-07-25T05:33:54.825Z,17.50
2022-07-25T05:39:01.201Z,18.00
2022-07-25T05:44:07.725Z,18.20
2022-07-25T05:49:14.023Z,18.70
2022-07-25T05:54:19.370Z,18.80
2022-07-25T05:59:25.111Z,18.90
2022-07-25T06:04:30.581Z,19.00
2022-07-25T06:09:36.473Z,19.30
2022-07-25T06:14:41.434Z,19.70
2022-07-25T06:19:48.589Z,20.30
2022-07-25T06:24:53.806Z,20.40
2022-07-25T06:29:58.749Z,21.00
2022-07-25T06:35:04.480Z,21.60
2022-07-25T06:40:10.708Z,21.70
2022-07-25T06:45:17.247Z,22.30
2022-07-25T06:50:22.471Z,22.50
2022-07-25T06:55:27.575Z,23.20
2022-07-25T07:00:33.172Z,23.40
2022-07-25T07:05:41.365Z,23.60
2022-07-25T07:10:47.650Z,23.90
2022-07-25T07:15:53.936Z,23.80
2022-07-25T07:20:58.994Z,24.00
2022-07-25T07:26:04.606Z,24.50
2022-07-25T07:31:16.758Z,24.90
2022-07-25T07:36:19.265Z,25.30
2022-07-25T07:41:25.024Z,26.20
2022-07-25T07:46:31.111Z,26.40
2022-07-25T07:51:36.854Z,26.60
2022-07-25T07:56:42.463Z,26.80
2022-07-25T08:01:47.342Z,27.20
2022-07-25T08:06:53.111Z,27.30
2022-07-25T08:11:57.337Z,27.50
2022-07-25T08:17:02.956Z,27.20
2022-07-25T08:22:09.849Z,27.60
2022-07-25T08:27:15.003Z,28.20
2022-07-25T08:32:20.103Z,28.30
2022-07-25T08:37:24.898Z,28.00
2022-07-25T08:42:31.826Z,28.20
2022-07-25T08:47:38.404Z,28.00
2022-07-25T08:52:48.115Z,28.20
2022-07-25T08:57:54.536Z,28.40
2022-07-25T09:03:03.061Z,28.90
2022-07-25T09:08:17.494Z,29.70
2022-07-25T09:13:25.440Z,29.90
2022-07-25T09:18:30.922Z,30.50
2022-07-25T09:23:39.012Z,30.30
2022-07-25T09:28:47.519Z,30.60
2022-07-25T09:33:58.725Z,30.00
2022-07-25T09:39:06.491Z,30.20
2022-07-25T09:44:20.695Z,30.40
2022-07-25T09:49:27.214Z,30.20
2022-07-25T09:54:34.055Z,30.70
2022-07-25T09:59:39.869Z,30.20
2022-07-25T10:05:07.898Z,30.30
2022-07-25T10:10:23.496Z,30.60
2022-07-25T10:15:30.445Z,30.00
2022-07-25T10:20:38.400Z,30.00
2022-07-25T10:25:49.083Z,30.30
2022-07-25T10:30:57.394Z,30.60
2022-07-25T10:36:11.202Z,30.70
2022-07-25T10:41:18.897Z,30.80
2022-07-25T10:46:27.912Z,31.00
2022-07-25T10:51:41.669Z,31.00
2022-07-25T10:56:59.900Z,31.10
2022-07-25T11:02:08.662Z,31.00
2022-07-25T11:07:19.268Z,31.10
2022-07-25T11:12:25.222Z,31.50
2022-07-25T11:17:32.726Z,31.30
2022-07-25T11:22:39.667Z,31.10
2022-07-25T11:28:01.010Z,31.50
2022-07-25T11:33:06.743Z,31.50
2022-07-25T11:38:15.200Z,31.50
2022-07-25T11:43:26.081Z,31.70
2022-07-25T11:48:36.886Z,31.50
2022-07-25T11:53:46.100Z,32.10
2022-07-25T11:58:59.378Z,31.80
2022-07-25T12:04:21.646Z,31.50
2022-07-25T12:09:26.898Z,31.40
2022-07-25T12:14:35.504Z,31.60
2022-07-25T12:19:41.601Z,31.80
2022-07-25T12:24:47.167Z,31.30
2022-07-25T12:29:52.774Z,31.70
2022-07-25T12:34:58.876Z,31.80
2022-07-25T12:40:04.882Z,31.50
2022-07-25T12:45:10.687Z,31.70
2022-07-25T12:50:16.678Z,32.30
2022-07-25T12:55:23.293Z,31.90
2022-07-25T13:00:29.084Z,32.80
2022-07-25T13:05:35.058Z,32.50
2022-07-25T13:10:40.812Z,32.10
2022-07-25T13:15:46.420Z,32.70
2022-07-25T13:20:51.947Z,32.00
2022-07-25T13:25:57.726Z,32.20
2022-07-25T13:31:04.927Z,32.30
2022-07-25T13:36:11.292Z,31.90
2022-07-25T13:41:17.785Z,32.10
2022-07-25T13:46:25.254Z,31.80
2022-07-25T13:51:30.332Z,31.70
2022-07-25T13:56:35.660Z,31.80
2022-07-25T14:01:41.919Z,31.50
2022-07-25T14:06:50.023Z,31.40
2022-07-25T14:11:55.208Z,31.50
2022-07-25T14:17:00.802Z,31.60
2022-07-25T14:22:05.675Z,32.00
2022-07-25T14:27:10.653Z,32.10
2022-07-25T14:32:14.933Z,31.90
2022-07-25T14:37:21.875Z,32.00
2022-07-25T14:42:27.550Z,32.10
2022-07-25T14:47:33.262Z,31.90
2022-07-25T14:52:38.501Z,31.50
2022-07-25T14:57:46.129Z,31.40
2022-07-25T15:02:51.757Z,31.30
2022-07-25T15:07:59.293Z,31.90
2022-07-25T15:13:30.031Z,31.50
2022-07-25T15:18:14.898Z,31.60
2022-07-25T15:23:23.178Z,31.80
2022-07-25T15:28:28.564Z,31.30
2022-07-25T15:33:34.942Z,31.40
2022-07-25T15:38:40.879Z,31.30
2022-07-25T15:43:47.334Z,31.30
2022-07-25T15:48:54.025Z,31.40
2022-07-25T15:54:00.008Z,31.20
2022-07-25T15:59:07.465Z,31.20
2022-07-25T16:04:14.082Z,31.20
2022-07-25T16:09:21.575Z,31.30
2022-07-25T16:14:26.734Z,31.30
2022-07-25T16:19:33.513Z,31.00
2022-07-25T16:24:40.954Z,31.00
2022-07-25T16:29:47.070Z,31.00
2022-07-25T16:34:53.541Z,30.60
2022-07-25T16:39:58.823Z,30.50
2022-07-25T16:45:04.746Z,30.50
2022-07-25T16:50:10.363Z,30.40
2022-07-25T16:55:15.445Z,30.30
2022-07-25T17:00:20.962Z,30.20
2022-07-25T17:05:27.118Z,30.00
2022-07-25T17:10:32.943Z,29.80
2022-07-25T17:15:38.433Z,29.90
2022-07-25T17:20:44.190Z,29.80
2022-07-25T17:25:50.835Z,29.70
2022-07-25T17:30:56.485Z,29.60
2022-07-25T17:36:02.684Z,29.40
2022-07-25T17:41:08.894Z,29.10
2022-07-25T17:46:14.373Z,29.00
2022-07-25T17:51:19.598Z,28.70
2022-07-25T17:56:24.646Z,28.50
2022-07-25T18:01:31.021Z,28.20
2022-07-25T18:06:37.613Z,27.50
2022-07-25T18:11:44.546Z,27.20
2022-07-25T18:16:50.279Z,26.20
2022-07-25T18:21:55.892Z,26.50
2022-07-25T18:27:01.646Z,26.10
2022-07-25T18:32:07.463Z,25.90
2022-07-25T18:37:14.326Z,25.40
2022-07-25T18:42:19.691Z,25.10
2022-07-25T18:47:32.115Z,24.70
2022-07-25T18:52:37.396Z,24.60
2022-07-25T18:57:43.990Z,24.30
2022-07-25T19:02:48.376Z,24.10
2022-07-25T19:07:53.943Z,23.90
2022-07-25T19:12:59.204Z,25.30
2022-07-25T19:18:05.402Z,24.70
2022-07-25T19:23:11.429Z,24.10
2022-07-25T19:28:16.398Z,23.50
2022-07-25T19:33:21.429Z,23.20
2022-07-25T19:38:27.283Z,23.20
2022-07-25T19:43:34.046Z,22.70
2022-07-25T19:48:38.650Z,22.90
2022-07-25T19:53:44.039Z,22.40
2022-07-25T19:58:50.056Z,23.30
2022-07-25T20:03:55.881Z,23.60
2022-07-25T20:09:01.659Z,23.40
2022-07-25T20:14:07.697Z,22.70
2022-07-25T20:19:13.229Z,23.00
2022-07-25T20:24:21.722Z,23.30
2022-07-25T20:29:27.684Z,23.20
2022-07-25T20:34:33.546Z,23.70
2022-07-25T20:39:39.556Z,23.20
2022-07-25T20:44:44.959Z,22.90
2022-07-25T20:49:49.919Z,22.80
2022-07-25T20:54:55.414Z,22.70
2022-07-25T21:00:01.911Z,22.60
2022-07-25T21:05:07.667Z,21.80
2022-07-25T21:10:12.418Z,21.50
2022-07-25T21:15:18.749Z,21.40
2022-07-25T21:20:24.816Z,21.50
2022-07-25T21:25:30.189Z,21.10
2022-07-25T21:30:36.323Z,21.20
2022-07-25T21:35:49.197Z,21.20
2022-07-25T21:40:52.857Z,21.30
2022-07-25T21:45:57.390Z,21.30
2022-07-25T21:51:03.059Z,20.90
2022-07-25T21:56:10.911Z,21.40
2022-07-25T22:01:16.327Z,21.20
2022-07-25T22:06:21.468Z,21.10
2022-07-25T22:11:38.702Z,21.00
2022-07-25T22:16:34.240Z,21.00
2022-07-25T22:21:41.432Z,21.20
2022-07-25T22:26:46.522Z,21.30
2022-07-25T22:31:52.410Z,21.00
2022-07-25T22:36:58.323Z,20.90
2022-07-25T22:42:04.600Z,20.60
2022-07-25T22:47:09.836Z,20.70
2022-07-25T22:52:16.387Z,20.90
2022-07-25T22:57:21.401Z,20.80
2022-07-25T23:02:26.815Z,20.80
2022-07-25T23:07:33.467Z,20.90
2022-07-25T23:12:39.845Z,21.10
2022-07-25T23:17:45.568Z,21.20
2022-07-25T23:22:51.888Z,21.00
2022-07-25T23:27:59.886Z,21.10
2022-07-25T23:33:04.409Z,21.20
2022-07-25T23:38:10.348Z,21.20
2022-07-25T23:43:16.378Z,21.60
2022-07-25T23:48:23.498Z,21.70
2022-07-25T23:53:30.065Z,21.30
2022-07-25T23:58:41.145Z,20.70
